Time;durP1;ratioP1;P1;durP2;ratioP2;P2;SDS_P1;SDS_P2;PMS_P1;PMS_P2;Temp;Humidity;BMP_temperature;BMP_pressure;BME280_temperature;BME280_humidity;BME280_pressure;Samples;Min_cycle;Max_cycle;Signal;HPM_P1;HPM_P2
2023/12/29 00:02:28;;;;;;;21.43;6.30;;;;;;;;;;6098720;23;20172;-87
2023/12/29 00:05:00;;;;;;;13.60;5.50;;;;;;;;;;6097867;23;20183;-87
2023/12/29 00:07:29;;;;;;;40.20;10.43;;;;;;;;;;6098922;23;20183;-87
2023/12/29 00:10:02;;;;;;;26.97;7.37;;;;;;;;;;6098564;23;20188;-89
2023/12/29 00:12:39;;;;;;;19.03;4.90;;;;;;;;;;6098703;23;20192;-88
2023/12/29 00:15:14;;;;;;;25.23;7.17;;;;;;;;;;6123618;23;20204;-89
2023/12/29 00:17:49;;;;;;;15.40;5.37;;;;;;;;;;6098471;23;20200;-88
2023/12/29 00:20:24;;;;;;;22.27;5.80;;;;;;;;;;6098601;23;20187;-88
2023/12/29 00:23:11;;;;;;;27.77;7.70;;;;;;;;;;6099068;23;20176;-88
2023/12/29 00:25:46;;;;;;;40.50;9.77;;;;;;;;;;6098007;23;20262;-89
2023/12/29 00:28:23;;;;;;;24.50;8.03;;;;;;;;;;6098466;23;20294;-88
2023/12/29 00:30:59;;;;;;;35.57;9.47;;;;;;;;;;6098819;23;20210;-88
2023/12/29 00:33:34;;;;;;;32.50;8.07;;;;;;;;;;6098342;23;20219;-88
2023/12/29 00:36:18;;;;;;;22.87;7.73;;;;;;;;;;6123313;23;20218;-88
2023/12/29 00:38:48;;;;;;;22.10;7.40;;;;;;;;;;6098295;23;20176;-89
2023/12/29 00:41:29;;;;;;;32.37;10.00;;;;;;;;;;6098973;23;20183;-88
2023/12/29 00:44:01;;;;;;;18.47;5.87;;;;;;;;;;6124272;23;20168;-89
2023/12/29 00:46:31;;;;;;;27.30;8.30;;;;;;;;;;6098110;23;20179;-88
2023/12/29 00:49:08;;;;;;;21.50;6.83;;;;;;;;;;6097980;23;20173;-87
2023/12/29 00:51:43;;;;;;;17.23;5.10;;;;;;;;;;6098565;23;20204;-88
2023/12/29 00:54:17;;;;;;;20.77;5.97;;;;;;;;;;6098142;23;20195;-87
2023/12/29 00:56:52;;;;;;;18.00;5.83;;;;;;;;;;6097844;23;20365;-88
2023/12/29 00:59:24;;;;;;;30.10;6.33;;;;;;;;;;6098525;23;20176;-88
2023/12/29 01:02:01;;;;;;;21.40;6.03;;;;;;;;;;6098858;23;20172;-88
2023/12/29 01:04:32;;;;;;;22.23;6.87;;;;;;;;;;6098587;23;20176;-88
2023/12/29 01:07:10;;;;;;;18.03;8.30;;;;;;;;;;6097504;23;20200;-87
2023/12/29 01:09:41;;;;;;;22.50;7.63;;;;;;;;;;6098330;23;20208;-88
2023/12/29 01:12:16;;;;;;;9.13;4.90;;;;;;;;;;6098339;23;20183;-88
2023/12/29 01:14:49;;;;;;;23.43;6.00;;;;;;;;;;6099695;23;20200;-88
2023/12/29 01:17:22;;;;;;;28.70;8.90;;;;;;;;;;6099940;23;20204;-88
2023/12/29 01:19:53;;;;;;;23.90;6.00;;;;;;;;;;6100454;23;20180;-88
2023/12/29 01:22:27;;;;;;;21.70;6.50;;;;;;;;;;6100363;23;20182;-88
2023/12/29 01:25:08;;;;;;;22.90;7.87;;;;;;;;;;6126058;23;20171;-88
2023/12/29 01:27:40;;;;;;;18.87;7.23;;;;;;;;;;6101444;23;20180;-88
2023/12/29 01:30:09;;;;;;;19.30;6.70;;;;;;;;;;6129436;23;20176;-88
2023/12/29 01:32:41;;;;;;;24.53;7.83;;;;;;;;;;6129868;23;20171;-88
2023/12/29 01:35:13;;;;;;;19.00;7.60;;;;;;;;;;6129292;23;20175;-88
2023/12/29 01:37:46;;;;;;;12.00;5.03;;;;;;;;;;6128684;23;20175;-88
2023/12/29 01:40:20;;;;;;;19.47;5.90;;;;;;;;;;6155041;23;20204;-88
2023/12/29 01:42:52;;;;;;;22.70;4.83;;;;;;;;;;6129163;23;20178;-88
2023/12/29 01:45:25;;;;;;;12.97;4.43;;;;;;;;;;6129016;23;20234;-88
2023/12/29 01:47:58;;;;;;;9.80;4.30;;;;;;;;;;6128688;23;20176;-87
2023/12/29 01:50:37;;;;;;;8.83;4.07;;;;;;;;;;6128894;23;20180;-88
2023/12/29 01:53:09;;;;;;;14.53;4.93;;;;;;;;;;6129230;23;20198;-88
2023/12/29 01:55:38;;;;;;;13.70;5.07;;;;;;;;;;6129046;23;20179;-88
2023/12/29 01:58:10;;;;;;;21.63;5.67;;;;;;;;;;6128782;23;20179;-88
2023/12/29 02:00:39;;;;;;;22.57;5.43;;;;;;;;;;6154721;23;20272;-88
2023/12/29 02:03:11;;;;;;;23.20;6.23;;;;;;;;;;6129205;23;20171;-88
2023/12/29 02:05:45;;;;;;;10.10;4.77;;;;;;;;;;6128936;23;20196;-88
2023/12/29 02:08:22;;;;;;;15.30;3.77;;;;;;;;;;6154437;23;20172;-88
2023/12/29 02:10:57;;;;;;;15.27;4.50;;;;;;;;;;6154459;23;20198;-88
2023/12/29 02:13:30;;;;;;;12.43;3.53;;;;;;;;;;6128508;23;20223;-89
2023/12/29 02:16:10;;;;;;;15.10;5.03;;;;;;;;;;6129152;23;20209;-88
2023/12/29 02:18:45;;;;;;;15.27;5.13;;;;;;;;;;6128819;23;20244;-88
2023/12/29 02:21:14;;;;;;;20.73;7.03;;;;;;;;;;6128306;23;20176;-88
2023/12/29 02:23:45;;;;;;;13.93;3.77;;;;;;;;;;6128780;23;20227;-88
2023/12/29 02:26:17;;;;;;;23.07;6.33;;;;;;;;;;6154020;23;20234;-89
2023/12/29 02:28:58;;;;;;;19.23;5.80;;;;;;;;;;6123662;23;20260;-88
2023/12/29 02:31:29;;;;;;;9.50;4.37;;;;;;;;;;6123645;23;20186;-88
2023/12/29 02:33:58;;;;;;;16.80;4.27;;;;;;;;;;6125312;23;20188;-88
2023/12/29 02:36:29;;;;;;;18.50;5.17;;;;;;;;;;6123566;23;20183;-88
2023/12/29 02:39:01;;;;;;;18.47;6.13;;;;;;;;;;6123718;23;20180;-87
2023/12/29 02:41:33;;;;;;;15.13;3.47;;;;;;;;;;6123447;23;20180;-87
2023/12/29 02:44:10;;;;;;;16.07;3.33;;;;;;;;;;6125592;23;20200;-88
2023/12/29 02:46:40;;;;;;;17.60;4.07;;;;;;;;;;6124443;23;20176;-88
2023/12/29 02:49:12;;;;;;;11.50;4.80;;;;;;;;;;6121888;23;20180;-88
2023/12/29 02:51:56;;;;;;;9.83;2.53;;;;;;;;;;6123658;23;20177;-88
2023/12/29 02:54:28;;;;;;;12.83;3.93;;;;;;;;;;6123797;23;20251;-88
2023/12/29 02:56:59;;;;;;;15.60;4.07;;;;;;;;;;6123629;23;20181;-89
2023/12/29 02:59:32;;;;;;;9.30;3.80;;;;;;;;;;6123552;23;20221;-88
2023/12/29 03:02:04;;;;;;;10.93;4.70;;;;;;;;;;6123052;23;20185;-88
2023/12/29 03:04:33;;;;;;;19.57;6.40;;;;;;;;;;6123848;23;20288;-89
2023/12/29 03:07:08;;;;;;;16.90;5.47;;;;;;;;;;6123570;23;20271;-89
2023/12/29 03:09:37;;;;;;;11.30;5.17;;;;;;;;;;6123177;23;20180;-88
2023/12/29 03:12:26;;;;;;;16.87;5.03;;;;;;;;;;6123565;23;20173;-88
2023/12/29 03:14:57;;;;;;;20.23;6.83;;;;;;;;;;6124119;23;20199;-88
2023/12/29 03:17:26;;;;;;;16.00;5.63;;;;;;;;;;6125129;23;20188;-87
2023/12/29 03:19:57;;;;;;;14.73;4.73;;;;;;;;;;6124308;23;20180;-88
2023/12/29 03:22:26;;;;;;;10.00;5.87;;;;;;;;;;6122964;23;20181;-87
2023/12/29 03:24:59;;;;;;;7.17;2.27;;;;;;;;;;6123473;23;20176;-88
2023/12/29 03:27:32;;;;;;;15.90;3.67;;;;;;;;;;6123584;23;20205;-88
2023/12/29 03:30:09;;;;;;;13.90;3.63;;;;;;;;;;6098751;23;20215;-88
2023/12/29 03:32:42;;;;;;;17.87;4.40;;;;;;;;;;6098575;23;20260;-88
2023/12/29 03:35:10;;;;;;;15.93;3.23;;;;;;;;;;6098923;23;20307;-88
2023/12/29 03:37:43;;;;;;;15.63;5.23;;;;;;;;;;6124413;23;20174;-89
2023/12/29 03:40:16;;;;;;;15.97;5.50;;;;;;;;;;6122211;23;20183;-89
2023/12/29 03:42:50;;;;;;;19.83;5.00;;;;;;;;;;6098205;23;20176;-87
2023/12/29 03:45:19;;;;;;;20.97;3.90;;;;;;;;;;6099017;23;20176;-89
2023/12/29 03:47:53;;;;;;;22.03;4.60;;;;;;;;;;6123080;23;20207;-88
2023/12/29 03:50:27;;;;;;;6.47;3.80;;;;;;;;;;6098570;23;20180;-88
2023/12/29 03:53:05;;;;;;;13.73;5.50;;;;;;;;;;6098542;23;20214;-88
2023/12/29 03:55:39;;;;;;;9.23;3.63;;;;;;;;;;6098909;23;20200;-89
2023/12/29 03:58:11;;;;;;;6.07;3.47;;;;;;;;;;6099049;23;20300;-88
2023/12/29 04:00:41;;;;;;;11.30;5.23;;;;;;;;;;6123419;23;20184;-88
2023/12/29 04:03:13;;;;;;;4.60;2.17;;;;;;;;;;6098240;23;20180;-88
2023/12/29 04:05:49;;;;;;;12.20;4.40;;;;;;;;;;6098688;23;20192;-87
2023/12/29 04:08:33;;;;;;;8.40;2.80;;;;;;;;;;6123068;23;20178;-87
2023/12/29 04:11:09;;;;;;;15.30;5.73;;;;;;;;;;6124195;23;20175;-87
2023/12/29 04:13:40;;;;;;;16.00;3.27;;;;;;;;;;6098561;23;20181;-87
2023/12/29 04:16:12;;;;;;;9.63;2.43;;;;;;;;;;6098598;23;20287;-86
2023/12/29 04:18:45;;;;;;;13.63;5.30;;;;;;;;;;6123097;23;20186;-87
2023/12/29 04:21:19;;;;;;;11.93;3.33;;;;;;;;;;6098770;23;20175;-86
2023/12/29 04:23:51;;;;;;;10.27;2.70;;;;;;;;;;6098180;23;20240;-86
2023/12/29 04:26:24;;;;;;;5.47;3.23;;;;;;;;;;6098670;23;20176;-86
2023/12/29 04:29:10;;;;;;;12.80;3.93;;;;;;;;;;6141173;23;20282;-87
2023/12/29 04:31:48;;;;;;;12.57;5.50;;;;;;;;;;6126362;23;20189;-87
2023/12/29 04:34:22;;;;;;;14.90;5.17;;;;;;;;;;6127572;23;20270;-86
2023/12/29 04:36:51;;;;;;;10.50;3.63;;;;;;;;;;6127579;23;20214;-87
2023/12/29 04:39:22;;;;;;;15.80;4.13;;;;;;;;;;6127830;23;20175;-87
2023/12/29 04:41:55;;;;;;;12.50;4.30;;;;;;;;;;6127649;23;20183;-87
2023/12/29 04:44:28;;;;;;;11.63;3.17;;;;;;;;;;6127285;23;20177;-86
2023/12/29 04:46:59;;;;;;;13.23;3.87;;;;;;;;;;6128355;23;20207;-87
2023/12/29 04:49:28;;;;;;;17.80;4.87;;;;;;;;;;6130882;23;20243;-87
2023/12/29 04:52:08;;;;;;;15.20;3.53;;;;;;;;;;6156616;23;20178;-87
2023/12/29 04:54:43;;;;;;;10.40;4.73;;;;;;;;;;6156042;23;20201;-87
2023/12/29 04:57:26;;;;;;;20.60;5.83;;;;;;;;;;6130589;23;20210;-87
2023/12/29 04:59:58;;;;;;;17.67;4.93;;;;;;;;;;6130067;23;20176;-87
2023/12/29 05:02:38;;;;;;;17.77;4.20;;;;;;;;;;6156605;23;20176;-88
2023/12/29 05:05:07;;;;;;;15.27;3.73;;;;;;;;;;6129443;23;20176;-87
2023/12/29 05:07:45;;;;;;;17.53;4.33;;;;;;;;;;6131300;23;20200;-86
2023/12/29 05:10:13;;;;;;;23.90;5.43;;;;;;;;;;6156546;23;20517;-87
2023/12/29 05:12:44;;;;;;;10.43;3.37;;;;;;;;;;6130331;23;20179;-87
2023/12/29 05:15:19;;;;;;;10.07;4.07;;;;;;;;;;6129863;23;20194;-87
2023/12/29 05:17:56;;;;;;;12.57;3.40;;;;;;;;;;6130066;23;20179;-87
2023/12/29 05:20:29;;;;;;;10.30;4.77;;;;;;;;;;6130988;23;20180;-87
2023/12/29 05:23:00;;;;;;;12.60;4.57;;;;;;;;;;6130436;23;20262;-87
2023/12/29 05:25:28;;;;;;;9.93;3.37;;;;;;;;;;6129517;23;20180;-86
2023/12/29 05:28:11;;;;;;;12.20;3.60;;;;;;;;;;6124902;23;20293;-87
2023/12/29 05:30:44;;;;;;;7.63;3.83;;;;;;;;;;6101275;23;20183;-87
2023/12/29 05:33:14;;;;;;;16.67;6.20;;;;;;;;;;6101168;23;20183;-87
2023/12/29 05:35:52;;;;;;;8.63;3.17;;;;;;;;;;6100469;23;20319;-87
2023/12/29 05:38:21;;;;;;;11.17;3.40;;;;;;;;;;6100602;23;20176;-87
2023/12/29 05:40:53;;;;;;;14.47;3.50;;;;;;;;;;6126873;23;20184;-86
2023/12/29 05:43:23;;;;;;;23.33;6.10;;;;;;;;;;6100517;23;20212;-86
2023/12/29 05:45:55;;;;;;;18.30;3.37;;;;;;;;;;6100254;23;20203;-86
2023/12/29 05:48:30;;;;;;;15.47;5.83;;;;;;;;;;6100973;23;20177;-86
2023/12/29 05:51:09;;;;;;;5.37;2.33;;;;;;;;;;6100126;23;20176;-87
2023/12/29 05:53:43;;;;;;;19.70;3.93;;;;;;;;;;6100298;23;20233;-86
2023/12/29 05:56:17;;;;;;;18.63;5.50;;;;;;;;;;6099913;23;20195;-87
2023/12/29 05:58:50;;;;;;;7.90;3.17;;;;;;;;;;6126128;23;20174;-86
2023/12/29 06:01:24;;;;;;;10.87;5.17;;;;;;;;;;6101164;23;20180;-86
2023/12/29 06:04:05;;;;;;;17.57;6.23;;;;;;;;;;6126446;23;20171;-86
2023/12/29 06:06:34;;;;;;;19.13;4.63;;;;;;;;;;6126079;23;20254;-86
2023/12/29 06:09:07;;;;;;;19.47;5.77;;;;;;;;;;6101021;23;20238;-87
2023/12/29 06:11:41;;;;;;;22.13;3.80;;;;;;;;;;6101021;23;20179;-86
2023/12/29 06:14:20;;;;;;;16.10;5.57;;;;;;;;;;6100583;23;20263;-86
2023/12/29 06:16:51;;;;;;;10.70;2.97;;;;;;;;;;6099305;23;20219;-86
2023/12/29 06:19:32;;;;;;;13.50;4.80;;;;;;;;;;6101016;23;20176;-87
2023/12/29 06:22:01;;;;;;;22.03;5.77;;;;;;;;;;6100961;23;20180;-87
2023/12/29 06:24:35;;;;;;;11.53;6.37;;;;;;;;;;6100574;23;20176;-87
2023/12/29 06:27:04;;;;;;;16.53;6.63;;;;;;;;;;6125319;23;20251;-87
2023/12/29 06:29:34;;;;;;;18.37;4.10;;;;;;;;;;6100094;23;20263;-88
2023/12/29 06:32:09;;;;;;;34.13;6.67;;;;;;;;;;6101113;23;20172;-87
2023/12/29 06:34:51;;;;;;;13.20;5.13;;;;;;;;;;6126381;23;20219;-87
2023/12/29 06:37:19;;;;;;;32.90;7.17;;;;;;;;;;6100352;23;20195;-87
2023/12/29 06:39:50;;;;;;;9.30;3.87;;;;;;;;;;6101741;23;20191;-88
2023/12/29 06:42:24;;;;;;;19.27;4.97;;;;;;;;;;6100797;23;20188;-88
2023/12/29 06:44:56;;;;;;;12.30;4.60;;;;;;;;;;6100731;23;20175;-88
2023/12/29 06:47:27;;;;;;;16.57;5.33;;;;;;;;;;6100033;23;20172;-88
2023/12/29 06:50:06;;;;;;;14.20;3.43;;;;;;;;;;6100502;23;20176;-88
2023/12/29 06:52:41;;;;;;;9.13;2.63;;;;;;;;;;6100714;23;20176;-87
2023/12/29 06:55:10;;;;;;;16.10;4.00;;;;;;;;;;6100891;23;20187;-88
2023/12/29 06:57:46;;;;;;;10.13;3.27;;;;;;;;;;6099441;23;20203;-88
2023/12/29 07:00:19;;;;;;;10.83;4.00;;;;;;;;;;6100307;23;20180;-88
2023/12/29 07:02:50;;;;;;;15.10;4.60;;;;;;;;;;6126556;23;20180;-88
2023/12/29 07:05:21;;;;;;;11.47;4.13;;;;;;;;;;6125575;23;20274;-88
2023/12/29 07:07:50;;;;;;;9.33;3.77;;;;;;;;;;6099664;23;20227;-87
2023/12/29 07:10:18;;;;;;;11.00;3.73;;;;;;;;;;6127254;23;20267;-88
2023/12/29 07:12:47;;;;;;;13.10;3.03;;;;;;;;;;6101176;23;20216;-87
2023/12/29 07:15:19;;;;;;;17.67;4.30;;;;;;;;;;6100489;23;20184;-88
2023/12/29 07:17:47;;;;;;;10.80;4.07;;;;;;;;;;6125456;23;20495;-87
2023/12/29 07:20:16;;;;;;;24.23;4.57;;;;;;;;;;6125259;23;20168;-88
2023/12/29 07:22:47;;;;;;;10.53;4.43;;;;;;;;;;6100534;23;20183;-88
2023/12/29 07:25:21;;;;;;;8.27;3.03;;;;;;;;;;6099701;23;20187;-88
2023/12/29 07:27:50;;;;;;;4.87;2.07;;;;;;;;;;6129078;23;20168;-87
2023/12/29 07:30:21;;;;;;;13.10;3.03;;;;;;;;;;6128985;23;20184;-88
2023/12/29 07:32:51;;;;;;;18.20;4.57;;;;;;;;;;6129809;23;20185;-88
2023/12/29 07:35:20;;;;;;;6.23;2.10;;;;;;;;;;6129586;23;20176;-87
2023/12/29 07:37:51;;;;;;;27.27;6.00;;;;;;;;;;6128640;23;20207;-88
2023/12/29 07:40:20;;;;;;;18.10;6.73;;;;;;;;;;6128982;23;20210;-88
2023/12/29 07:42:50;;;;;;;7.80;2.40;;;;;;;;;;6129433;23;20206;-89
2023/12/29 07:45:19;;;;;;;14.07;3.57;;;;;;;;;;6128998;23;20226;-88
2023/12/29 07:47:48;;;;;;;12.37;4.33;;;;;;;;;;6128669;23;20194;-88
2023/12/29 07:50:18;;;;;;;11.20;3.33;;;;;;;;;;6128258;23;20175;-89
2023/12/29 07:52:50;;;;;;;22.80;4.63;;;;;;;;;;6129807;23;20175;-89
2023/12/29 07:55:20;;;;;;;17.93;3.93;;;;;;;;;;6129508;23;20282;-89
2023/12/29 07:57:48;;;;;;;11.17;2.80;;;;;;;;;;6128810;23;20199;-89
2023/12/29 08:00:22;;;;;;;19.93;5.10;;;;;;;;;;6128764;23;20192;-88
2023/12/29 08:02:51;;;;;;;20.77;6.53;;;;;;;;;;6155027;23;20230;-89
2023/12/29 08:05:20;;;;;;;30.97;6.07;;;;;;;;;;6128793;23;20223;-89
2023/12/29 08:07:50;;;;;;;27.30;6.67;;;;;;;;;;6128642;23;20175;-90
2023/12/29 08:10:20;;;;;;;12.47;4.07;;;;;;;;;;6128403;23;20290;-88
2023/12/29 08:12:51;;;;;;;6.60;2.93;;;;;;;;;;6129059;23;20172;-87
2023/12/29 08:15:21;;;;;;;18.13;4.33;;;;;;;;;;6155229;23;20270;-88
2023/12/29 08:17:49;;;;;;;14.57;3.97;;;;;;;;;;6128587;23;20188;-88
2023/12/29 08:20:18;;;;;;;20.80;4.03;;;;;;;;;;6154171;23;20171;-88
2023/12/29 08:22:47;;;;;;;9.10;2.47;;;;;;;;;;6128876;23;20180;-88
2023/12/29 08:25:15;;;;;;;15.83;5.07;;;;;;;;;;6129188;23;20203;-89
2023/12/29 08:27:45;;;;;;;6.77;4.50;;;;;;;;;;6128556;23;20244;-89
2023/12/29 08:30:16;;;;;;;19.17;5.73;;;;;;;;;;6128270;23;20198;-89
2023/12/29 08:32:49;;;;;;;18.33;5.30;;;;;;;;;;6154620;23;20239;-88
2023/12/29 08:35:18;;;;;;;12.23;4.47;;;;;;;;;;6129664;23;20231;-88
2023/12/29 08:37:47;;;;;;;10.83;2.70;;;;;;;;;;6129677;23;20250;-89
2023/12/29 08:40:16;;;;;;;13.10;2.77;;;;;;;;;;6129051;23;20187;-88
2023/12/29 08:42:50;;;;;;;17.17;6.10;;;;;;;;;;6128752;23;20261;-88
2023/12/29 08:45:18;;;;;;;6.40;3.43;;;;;;;;;;6129150;23;20179;-87
2023/12/29 08:47:47;;;;;;;9.10;3.13;;;;;;;;;;6154344;23;20168;-87
2023/12/29 08:50:16;;;;;;;15.07;3.83;;;;;;;;;;6128999;23;20176;-88
2023/12/29 08:52:45;;;;;;;9.63;2.03;;;;;;;;;;6128524;23;20171;-89
2023/12/29 08:55:14;;;;;;;6.03;2.20;;;;;;;;;;6129158;23;20244;-88
2023/12/29 08:57:43;;;;;;;10.97;3.53;;;;;;;;;;6129646;23;20188;-88
2023/12/29 09:00:13;;;;;;;20.60;3.57;;;;;;;;;;6128785;23;20207;-88
2023/12/29 09:02:43;;;;;;;8.27;4.80;;;;;;;;;;6128873;23;20175;-89
2023/12/29 09:05:12;;;;;;;18.10;3.57;;;;;;;;;;6155345;23;20283;-89
2023/12/29 09:07:43;;;;;;;9.27;4.30;;;;;;;;;;6129412;23;20175;-89
2023/12/29 09:10:13;;;;;;;20.30;4.60;;;;;;;;;;6154284;23;20202;-90
2023/12/29 09:12:43;;;;;;;7.27;3.77;;;;;;;;;;6128558;23;20180;-86
2023/12/29 09:15:13;;;;;;;9.53;3.90;;;;;;;;;;6154979;23;20198;-87
2023/12/29 09:17:43;;;;;;;19.37;5.80;;;;;;;;;;6127610;23;20201;-86
2023/12/29 09:20:14;;;;;;;6.83;2.40;;;;;;;;;;6128682;23;20183;-86
2023/12/29 09:22:46;;;;;;;10.37;4.50;;;;;;;;;;6127696;23;20270;-86
2023/12/29 09:25:15;;;;;;;22.70;6.50;;;;;;;;;;6128597;23;20222;-84
2023/12/29 09:27:44;;;;;;;5.80;1.73;;;;;;;;;;6128142;23;20211;-86
2023/12/29 09:30:15;;;;;;;15.20;3.73;;;;;;;;;;6153840;23;20173;-86
2023/12/29 09:32:44;;;;;;;17.87;4.33;;;;;;;;;;6127241;23;20209;-86
2023/12/29 09:35:13;;;;;;;21.60;4.77;;;;;;;;;;6155361;23;20200;-86
2023/12/29 09:37:42;;;;;;;16.00;4.27;;;;;;;;;;6155924;23;20225;-87
2023/12/29 09:40:14;;;;;;;12.60;3.57;;;;;;;;;;6130542;23;20177;-88
2023/12/29 09:42:44;;;;;;;8.97;4.27;;;;;;;;;;6155687;23;20178;-86
2023/12/29 09:45:15;;;;;;;6.53;1.60;;;;;;;;;;6155645;23;20189;-86
2023/12/29 09:47:45;;;;;;;10.40;2.23;;;;;;;;;;6129716;23;20185;-86
2023/12/29 09:50:14;;;;;;;11.60;3.33;;;;;;;;;;6132276;23;20182;-86
2023/12/29 09:52:44;;;;;;;9.47;2.67;;;;;;;;;;6128933;23;20189;-87
2023/12/29 09:55:13;;;;;;;14.70;3.57;;;;;;;;;;6155681;23;20196;-86
2023/12/29 09:57:42;;;;;;;9.97;3.20;;;;;;;;;;6130063;23;20201;-86
2023/12/29 10:00:12;;;;;;;12.80;4.00;;;;;;;;;;6130163;23;20177;-86
2023/12/29 10:02:43;;;;;;;9.43;3.30;;;;;;;;;;6155267;23;20252;-88
2023/12/29 10:05:11;;;;;;;7.03;3.50;;;;;;;;;;6129733;23;20207;-87
2023/12/29 10:07:41;;;;;;;9.57;2.73;;;;;;;;;;6130532;23;20182;-88
2023/12/29 10:10:15;;;;;;;9.83;3.17;;;;;;;;;;6130958;23;20177;-88
2023/12/29 10:12:45;;;;;;;6.07;2.17;;;;;;;;;;6130433;23;20182;-88
2023/12/29 10:15:15;;;;;;;11.63;3.73;;;;;;;;;;6131111;23;20186;-89
2023/12/29 10:17:51;;;;;;;8.77;2.50;;;;;;;;;;6156904;23;20268;-89
2023/12/29 10:20:26;;;;;;;15.40;3.67;;;;;;;;;;6157049;23;20236;-88
2023/12/29 10:22:59;;;;;;;6.63;2.40;;;;;;;;;;6130128;23;20174;-87
2023/12/29 10:25:29;;;;;;;4.60;2.70;;;;;;;;;;6129549;23;20183;-88
2023/12/29 10:27:58;;;;;;;8.93;2.77;;;;;;;;;;6124743;23;20261;-89
2023/12/29 10:30:31;;;;;;;9.27;2.40;;;;;;;;;;6102341;23;20234;-89
2023/12/29 10:33:04;;;;;;;7.53;2.53;;;;;;;;;;6101302;23;20221;-88
2023/12/29 10:35:34;;;;;;;3.20;1.93;;;;;;;;;;6101521;23;20186;-89
2023/12/29 10:38:17;;;;;;;9.33;3.63;;;;;;;;;;6100863;23;20198;-88
2023/12/29 10:40:51;;;;;;;18.33;3.10;;;;;;;;;;6102605;23;20246;-89
2023/12/29 10:43:27;;;;;;;10.27;4.33;;;;;;;;;;6100904;23;20188;-88
2023/12/29 10:46:07;;;;;;;5.57;2.63;;;;;;;;;;6126658;23;20172;-89
2023/12/29 10:48:41;;;;;;;11.37;4.10;;;;;;;;;;6101244;23;20186;-89
2023/12/29 10:51:13;;;;;;;14.93;3.43;;;;;;;;;;6099247;23;20183;-88
2023/12/29 10:53:43;;;;;;;12.73;2.67;;;;;;;;;;6099001;23;20179;-87
2023/12/29 10:56:20;;;;;;;12.17;3.13;;;;;;;;;;6099121;23;20186;-89
2023/12/29 10:58:59;;;;;;;22.77;3.30;;;;;;;;;;6099782;23;20198;-89
2023/12/29 11:01:30;;;;;;;17.43;3.83;;;;;;;;;;6100794;23;20232;-89
2023/12/29 11:04:05;;;;;;;14.50;4.37;;;;;;;;;;6099059;23;20353;-89
2023/12/29 11:06:43;;;;;;;7.63;2.20;;;;;;;;;;6097983;23;20202;-86
2023/12/29 11:09:13;;;;;;;7.77;3.27;;;;;;;;;;6098821;23;20209;-86
2023/12/29 11:11:43;;;;;;;9.37;2.97;;;;;;;;;;6099321;23;20176;-87
2023/12/29 11:14:13;;;;;;;6.20;2.60;;;;;;;;;;6123652;23;20182;-87
2023/12/29 11:16:44;;;;;;;8.00;2.77;;;;;;;;;;6097706;23;20210;-87
2023/12/29 11:19:14;;;;;;;7.53;2.33;;;;;;;;;;6099455;23;20196;-86
2023/12/29 11:21:45;;;;;;;14.23;2.53;;;;;;;;;;6125362;23;20203;-87
2023/12/29 11:24:20;;;;;;;8.67;3.00;;;;;;;;;;6098509;23;20291;-87
2023/12/29 11:27:07;;;;;;;10.80;3.60;;;;;;;;;;6097834;23;20235;-88
2023/12/29 11:29:46;;;;;;;9.90;2.47;;;;;;;;;;6150922;23;20217;-87
2023/12/29 11:32:18;;;;;;;12.77;4.13;;;;;;;;;;6127926;23;20509;-86
2023/12/29 11:34:54;;;;;;;6.20;1.90;;;;;;;;;;6154299;23;20230;-87
2023/12/29 11:37:35;;;;;;;10.90;2.90;;;;;;;;;;6126671;23;20192;-87
2023/12/29 11:40:11;;;;;;;17.07;3.50;;;;;;;;;;6128456;23;20203;-87
2023/12/29 11:42:50;;;;;;;4.33;1.60;;;;;;;;;;6128789;23;20188;-87
2023/12/29 11:45:38;;;;;;;19.97;4.60;;;;;;;;;;6126924;23;20285;-87
2023/12/29 11:48:38;;;;;;;15.57;5.13;;;;;;;;;;6125697;23;20290;-86
2023/12/29 11:51:35;;;;;;;4.37;1.73;;;;;;;;;;6129210;23;20188;-86
2023/12/29 11:54:07;;;;;;;11.63;3.07;;;;;;;;;;6129161;23;20187;-86
2023/12/29 11:56:41;;;;;;;7.77;2.60;;;;;;;;;;6154343;23;20182;-86
2023/12/29 11:59:16;;;;;;;13.40;1.73;;;;;;;;;;6129126;23;20286;-87
2023/12/29 12:01:52;;;;;;;7.87;2.07;;;;;;;;;;6127764;23;20206;-86
2023/12/29 12:04:45;;;;;;;7.87;3.33;;;;;;;;;;6128249;23;20182;-85
2023/12/29 12:07:17;;;;;;;11.67;4.63;;;;;;;;;;6128120;23;20199;-86
2023/12/29 12:09:49;;;;;;;4.13;1.90;;;;;;;;;;6128845;23;20297;-88
2023/12/29 12:12:35;;;;;;;9.27;3.33;;;;;;;;;;6129898;23;20186;-87
2023/12/29 12:15:04;;;;;;;3.37;2.60;;;;;;;;;;6127437;23;20225;-87
2023/12/29 12:17:41;;;;;;;5.10;2.33;;;;;;;;;;6127941;23;20427;-86
2023/12/29 12:20:16;;;;;;;7.17;3.60;;;;;;;;;;6128549;23;20204;-86
2023/12/29 12:22:46;;;;;;;11.40;4.53;;;;;;;;;;6130235;23;20175;-86
2023/12/29 12:25:23;;;;;;;10.50;4.07;;;;;;;;;;6154153;23;20172;-86
2023/12/29 12:27:53;;;;;;;10.20;3.20;;;;;;;;;;6127325;23;20230;-86
2023/12/29 12:30:31;;;;;;;5.73;2.03;;;;;;;;;;6128341;23;20175;-87
2023/12/29 12:33:09;;;;;;;11.37;3.93;;;;;;;;;;6128996;23;20179;-86
2023/12/29 12:35:40;;;;;;;12.13;2.03;;;;;;;;;;6128329;23;20175;-87
2023/12/29 12:38:10;;;;;;;8.40;4.37;;;;;;;;;;6153851;23;20176;-87
2023/12/29 12:40:49;;;;;;;7.70;4.30;;;;;;;;;;6155116;23;20213;-87
2023/12/29 12:43:25;;;;;;;10.03;3.93;;;;;;;;;;6128811;23;20186;-87
2023/12/29 12:46:13;;;;;;;6.80;2.50;;;;;;;;;;6128083;23;20297;-87
2023/12/29 12:48:46;;;;;;;8.40;2.70;;;;;;;;;;6127540;23;20214;-88
2023/12/29 12:51:15;;;;;;;10.43;3.00;;;;;;;;;;6154881;23;20174;-86
2023/12/29 12:53:45;;;;;;;9.93;3.67;;;;;;;;;;6129184;23;20177;-87
2023/12/29 12:56:16;;;;;;;7.97;3.03;;;;;;;;;;6128312;23;20183;-87
2023/12/29 12:58:45;;;;;;;9.53;3.10;;;;;;;;;;6153211;23;20222;-87
2023/12/29 13:01:14;;;;;;;13.90;2.93;;;;;;;;;;6128903;23;20186;-87
2023/12/29 13:03:45;;;;;;;7.00;2.63;;;;;;;;;;6128486;23;20182;-87
2023/12/29 13:06:28;;;;;;;5.03;2.53;;;;;;;;;;6128405;23;20207;-87
2023/12/29 13:08:57;;;;;;;3.63;2.33;;;;;;;;;;6128962;23;20261;-87
2023/12/29 13:11:38;;;;;;;6.30;2.30;;;;;;;;;;6130738;23;20238;-87
2023/12/29 13:14:24;;;;;;;3.53;1.90;;;;;;;;;;6130197;23;20226;-87
2023/12/29 13:17:02;;;;;;;7.33;2.03;;;;;;;;;;6130304;23;20234;-87
2023/12/29 13:19:38;;;;;;;11.13;2.40;;;;;;;;;;6129942;23;20202;-87
2023/12/29 13:22:27;;;;;;;5.07;2.63;;;;;;;;;;6131091;23;20175;-87
2023/12/29 13:25:02;;;;;;;9.00;2.47;;;;;;;;;;6156578;23;20288;-86
2023/12/29 13:27:38;;;;;;;9.33;2.03;;;;;;;;;;6127731;23;20180;-87
2023/12/29 13:30:08;;;;;;;9.60;1.97;;;;;;;;;;6100562;23;20183;-87
2023/12/29 13:32:43;;;;;;;7.83;1.80;;;;;;;;;;6100979;23;20179;-87
2023/12/29 13:35:20;;;;;;;9.23;2.47;;;;;;;;;;6100993;23;20196;-87
2023/12/29 13:38:01;;;;;;;5.20;2.23;;;;;;;;;;6100230;23;20299;-87
2023/12/29 13:40:50;;;;;;;9.63;3.00;;;;;;;;;;6100788;23;20199;-87
2023/12/29 13:43:38;;;;;;;3.40;3.13;;;;;;;;;;6100494;23;20261;-87
2023/12/29 13:46:14;;;;;;;7.93;2.50;;;;;;;;;;6126795;23;20180;-88
2023/12/29 13:48:50;;;;;;;9.67;2.00;;;;;;;;;;6100765;23;20203;-86
2023/12/29 13:51:26;;;;;;;6.63;2.90;;;;;;;;;;6100527;23;20176;-87
2023/12/29 13:54:03;;;;;;;14.03;3.80;;;;;;;;;;6100838;23;20275;-88
2023/12/29 13:56:33;;;;;;;1.53;1.43;;;;;;;;;;6077022;23;20176;-85
2023/12/29 13:59:10;;;;;;;4.13;1.13;;;;;;;;;;6096617;23;20195;-87
2023/12/29 14:01:40;;;;;;;16.60;3.43;;;;;;;;;;6100859;23;20259;-87
2023/12/29 14:04:21;;;;;;;4.00;1.80;;;;;;;;;;6100704;23;20180;-87
2023/12/29 14:07:00;;;;;;;1.80;1.70;;;;;;;;;;6099730;23;20201;-87
2023/12/29 14:09:29;;;;;;;7.00;3.03;;;;;;;;;;6099832;23;20243;-87
2023/12/29 14:12:02;;;;;;;13.63;4.30;;;;;;;;;;6100200;23;20187;-87
2023/12/29 14:14:35;;;;;;;13.30;4.07;;;;;;;;;;6100585;23;20259;-87
2023/12/29 14:17:10;;;;;;;10.67;3.00;;;;;;;;;;6100691;23;20187;-87
2023/12/29 14:19:49;;;;;;;15.93;4.20;;;;;;;;;;6099765;23;20235;-87
2023/12/29 14:22:24;;;;;;;9.17;3.43;;;;;;;;;;6100435;23;20206;-87
2023/12/29 14:25:07;;;;;;;8.83;3.73;;;;;;;;;;6100900;23;20180;-86
2023/12/29 14:27:41;;;;;;;2.90;1.47;;;;;;;;;;6100817;23;20178;-87
2023/12/29 14:30:31;;;;;;;7.67;2.13;;;;;;;;;;6129336;23;20171;-87
2023/12/29 14:33:09;;;;;;;5.43;2.33;;;;;;;;;;6129951;23;20186;-87
2023/12/29 14:35:54;;;;;;;1.27;1.17;;;;;;;;;;6155488;23;20174;-85
2023/12/29 14:38:28;;;;;;;1.50;1.03;;;;;;;;;;6129922;23;20226;-87
2023/12/29 14:40:59;;;;;;;2.70;1.27;;;;;;;;;;6154977;23;20206;-86
2023/12/29 14:43:39;;;;;;;5.57;1.70;;;;;;;;;;6130518;23;20187;-86
2023/12/29 14:46:16;;;;;;;1.97;1.63;;;;;;;;;;6129805;23;20186;-86
2023/12/29 14:48:48;;;;;;;2.33;1.60;;;;;;;;;;6129774;23;20182;-90
2023/12/29 14:51:23;;;;;;;0.93;0.70;;;;;;;;;;6129855;23;20199;-89
2023/12/29 14:53:54;;;;;;;1.93;1.17;;;;;;;;;;6130109;23;20183;-89
2023/12/29 14:56:34;;;;;;;4.93;1.13;;;;;;;;;;6130195;23;20176;-89
2023/12/29 14:59:15;;;;;;;2.93;1.20;;;;;;;;;;6156213;23;20172;-89
2023/12/29 15:01:55;;;;;;;1.20;0.93;;;;;;;;;;6129339;23;20202;-87
2023/12/29 15:04:31;;;;;;;0.80;0.80;;;;;;;;;;6130668;23;20180;-90
2023/12/29 15:07:04;;;;;;;5.03;1.83;;;;;;;;;;6130277;23;20217;-89
2023/12/29 15:09:51;;;;;;;2.47;1.27;;;;;;;;;;6130459;23;20176;-89
2023/12/29 15:12:26;;;;;;;2.30;1.40;;;;;;;;;;6129571;23;20175;-88